Euphony Ace — 3EDG6 — position and weather

sailwx.info

Track history (hours):
 
Tides and Currents Weather Stations Pressure Air Temp Water Temp Dewpoint Dewpoint Depression Visibility Wind Speed Wind Dir Waves Ship Positions

Euphony Ace

Last reported at 2017-Dec-15 07:59 UTC. Time now 2017-Dec-15 08:19 UTC.
Position N 53°35' E 008°33'.

Length 200 m; beam 32.2 m.

Type: Cargo ship. MMSI: 371618000.

Date/timePositionNaut miles runAvg speedWind from/ knotsBaromVisibWave heightAir tempDewpointWater temp
2017-Dec-15 07:59N 53°35' E 008°33'0 0.0
2017-Dec-15 07:29N 53°35' E 008°33'0 0.0
2017-Dec-15 06:59N 53°35' E 008°33'0 0.0
2017-Dec-15 06:29N 53°35' E 008°33'0 0.0
2017-Dec-15 05:59N 53°35' E 008°33'0 0.0
2017-Dec-15 05:29N 53°35' E 008°33'0 0.0
2017-Dec-15 04:59N 53°35' E 008°33'0 0.0
2017-Dec-15 04:29N 53°35' E 008°33'0 0.0
2017-Dec-15 03:59N 53°35' E 008°33'0 0.0
2017-Dec-15 02:29N 53°35' E 008°33'0 0.0
2017-Dec-15 00:59N 53°35' E 008°33'0 0.0
2017-Dec-15 00:29N 53°35' E 008°33'0 0.0
2017-Dec-14 18:29N 53°35' E 008°33'0 0.0
2017-Dec-14 17:59N 53°35' E 008°33'0 0.0
2017-Dec-14 17:29N 53°35' E 008°33'0 0.0
2017-Dec-14 16:59N 53°35' E 008°33'0 0.0
2017-Dec-14 16:30N 53°35' E 008°33'0 0.0
2017-Dec-14 15:59N 53°35' E 008°33'0 0.0
2017-Dec-14 14:59N 53°35' E 008°33'0 0.0
2017-Dec-14 14:29N 53°35' E 008°33'0 0.0
2017-Dec-14 13:59N 53°35' E 008°33'0 0.0
2017-Dec-14 13:29N 53°35' E 008°33'0 0.0
2017-Dec-14 12:59N 53°35' E 008°33'0 0.0
2017-Dec-14 12:29N 53°35' E 008°33'0 0.0
2017-Dec-14 11:59N 53°35' E 008°33'0 0.0
2017-Dec-14 11:29N 53°35' E 008°33'0 0.0
2017-Dec-14 10:59N 53°35' E 008°33'0 0.0
2017-Dec-14 10:29N 53°35' E 008°33'0 0.0
2017-Dec-14 09:59N 53°35' E 008°33'0 0.0
2017-Dec-14 09:29N 53°35' E 008°33'0 0.0
2017-Dec-14 08:59N 53°35' E 008°33'0 0.0
2017-Dec-14 08:29N 53°35' E 008°33'0 0.0
2017-Dec-14 07:59N 53°35' E 008°33'0 0.0
2017-Dec-14 07:29N 53°35' E 008°33'0 0.0
2017-Dec-14 06:59N 53°35' E 008°33'0 0.0
2017-Dec-14 06:29N 53°35' E 008°33'0 0.0
2017-Dec-14 05:59N 53°35' E 008°33'0 0.0
2017-Dec-14 05:29N 53°35' E 008°33'0 0.0
2017-Dec-14 04:59N 53°35' E 008°33'0 0.7
2017-Dec-14 04:30N 53°34' E 008°33'0 0.2
2017-Dec-14 04:00N 53°34' E 008°33'1 1.9
2017-Dec-14 03:30N 53°35' E 008°32'4 8.7
2017-Dec-14 03:00N 53°38' E 008°27'815.5
2017-Dec-14 02:30N 53°43' E 008°17'817.0
2017-Dec-14 02:00N 53°49' E 008°07'816.1
2017-Dec-14 01:30N 53°52' E 007°54'611.3
2017-Dec-14 01:00N 53°53' E 007°44'3 6.3
2017-Dec-14 00:30N 53°52' E 007°39'3 5.5
2017-Dec-14 00:00N 53°54' E 007°36'4613.5
2017-Dec-13 20:36N 53°38' E 006°22'211.3
2017-Dec-13 20:25N 53°37' E 006°25'615.9
2017-Dec-13 20:00N 53°36' E 006°36'917.4
2017-Dec-13 19:30N 53°30' E 006°48'815.7
2017-Dec-13 19:01N 53°25' E 006°57'611.3
2017-Dec-13 18:30N 53°20' E 007°01'4 9.0
2017-Dec-13 18:00N 53°20' E 007°08'2 3.2
2017-Dec-13 17:30N 53°20' E 007°11'0 0.1
2017-Dec-13 17:01N 53°20' E 007°11'0 0.0
2017-Dec-13 16:30N 53°20' E 007°11'0 0.0
2017-Dec-13 15:57N 53°20' E 007°11'0 0.0
2017-Dec-13 15:30N 53°20' E 007°11'0 0.0
2017-Dec-13 15:00N 53°20' E 007°11'0 0.0
2017-Dec-13 14:30N 53°20' E 007°11'0 0.0
2017-Dec-13 14:00N 53°20' E 007°11'0 0.0
2017-Dec-13 13:27N 53°20' E 007°11'0 0.0
2017-Dec-13 12:57N 53°20' E 007°11'0 0.0
2017-Dec-13 12:30N 53°20' E 007°11'0 0.0
2017-Dec-13 12:00N 53°20' E 007°11'0 0.0
2017-Dec-13 11:30N 53°20' E 007°11'0 0.0
2017-Dec-13 11:00N 53°20' E 007°11'0 0.0
2017-Dec-13 10:30N 53°20' E 007°11'0 0.0
2017-Dec-13 10:00N 53°20' E 007°11'0 0.0
2017-Dec-13 09:27N 53°20' E 007°11'0 0.0
2017-Dec-13 09:00N 53°20' E 007°11'0 0.0
2017-Dec-13 08:30N 53°20' E 007°11'0 0.0
2017-Dec-13 07:57N 53°20' E 007°11'0 0.0
2017-Dec-13 07:24N 53°20' E 007°11'0 0.0
2017-Dec-13 07:00N 53°20' E 007°11'0 0.0
2017-Dec-13 06:30N 53°20' E 007°11'0 0.0
2017-Dec-13 06:00N 53°20' E 007°11'0 0.0
2017-Dec-13 05:30N 53°20' E 007°11'0 0.0
2017-Dec-13 05:00N 53°20' E 007°11'0 0.0
2017-Dec-13 04:30N 53°20' E 007°11'0 0.0
2017-Dec-13 04:00N 53°20' E 007°11'0 0.0
2017-Dec-13 03:30N 53°20' E 007°11'0 0.0
2017-Dec-13 02:57N 53°20' E 007°11'0 0.0
2017-Dec-13 02:30N 53°20' E 007°11'0 0.0
2017-Dec-13 01:57N 53°20' E 007°11'0 0.0
2017-Dec-13 01:30N 53°20' E 007°11'0 0.0
2017-Dec-13 01:00N 53°20' E 007°11'0 0.0
2017-Dec-13 00:30N 53°20' E 007°11'0 0.0
2017-Dec-13 00:00N 53°20' E 007°11'0 0.0
2017-Dec-12 23:30N 53°20' E 007°11'0 0.0
2017-Dec-12 23:00N 53°20' E 007°11'0 0.0
2017-Dec-12 22:30N 53°20' E 007°11'0 0.0
2017-Dec-12 21:54N 53°20' E 007°11'0 0.0
2017-Dec-12 21:30N 53°20' E 007°11'0 0.0
2017-Dec-12 20:57N 53°20' E 007°11'0 0.0
2017-Dec-12 20:30N 53°20' E 007°11'0 0.0
2017-Dec-12 20:00N 53°20' E 007°11'0 0.0
2017-Dec-12 19:30N 53°20' E 007°11'0 0.0
2017-Dec-12 19:00N 53°20' E 007°11'0 0.0
2017-Dec-12 18:30N 53°20' E 007°11'0 0.0
2017-Dec-12 18:00N 53°20' E 007°11'0 0.0
2017-Dec-12 17:30N 53°20' E 007°11'0 0.0
2017-Dec-12 16:57N 53°20' E 007°11'0 0.0
2017-Dec-12 16:27N 53°20' E 007°11'0 0.0
2017-Dec-12 16:00N 53°20' E 007°11'0 0.0
2017-Dec-12 15:30N 53°20' E 007°11'0 0.0
2017-Dec-12 15:00N 53°20' E 007°11'0 0.0
2017-Dec-12 14:30N 53°20' E 007°11'0 0.0
2017-Dec-12 14:00N 53°20' E 007°11'0 0.0
2017-Dec-12 13:30N 53°20' E 007°11'0 0.0
2017-Dec-12 12:18N 53°20' E 007°11'0 0.0
2017-Dec-12 12:00N 53°20' E 007°11'0 0.0
2017-Dec-12 11:30N 53°20' E 007°11'0 0.0
2017-Dec-12 11:00N 53°20' E 007°11'0 0.0
2017-Dec-12 10:30N 53°20' E 007°11'0 0.0
2017-Dec-12 10:00N 53°20' E 007°11'0 0.0
2017-Dec-12 09:24N 53°20' E 007°11'0 0.0
2017-Dec-12 08:54N 53°20' E 007°11'0 0.0
2017-Dec-12 08:30N 53°20' E 007°11'0 0.0
2017-Dec-12 08:00N 53°20' E 007°11'0 0.0
2017-Dec-12 07:30N 53°20' E 007°11'0 0.0
2017-Dec-12 06:45N 53°20' E 007°11'0 0.0
2017-Dec-12 06:24N 53°20' E 007°11'0 0.0
2017-Dec-12 05:57N 53°20' E 007°11'0 0.0
2017-Dec-12 05:30N 53°20' E 007°11'0 0.0
2017-Dec-12 04:57N 53°20' E 007°11'0 0.0
2017-Dec-12 04:30N 53°20' E 007°11'0 0.0
2017-Dec-12 03:57N 53°20' E 007°11'0 0.0
2017-Dec-12 03:27N 53°20' E 007°11'0 0.0
2017-Dec-12 02:57N 53°20' E 007°11'0 0.0
2017-Dec-12 02:21N 53°20' E 007°11'0 0.0
2017-Dec-12 01:57N 53°20' E 007°11'0 0.0
2017-Dec-12 01:27N 53°20' E 007°11'0 0.0
2017-Dec-12 00:54N 53°20' E 007°11'0 0.0
2017-Dec-12 00:30N 53°20' E 007°11'0 0.0
2017-Dec-12 00:00N 53°20' E 007°11'0 0.0
2017-Dec-11 23:24N 53°20' E 007°11'0 0.0
2017-Dec-11 23:00N 53°20' E 007°11'0 0.0
2017-Dec-11 22:21N 53°20' E 007°11'0 0.0
2017-Dec-11 21:57N 53°20' E 007°11'0 0.0
2017-Dec-11 21:30N 53°20' E 007°11'0 0.0
2017-Dec-11 21:00N 53°20' E 007°11'0 0.0
2017-Dec-11 20:27N 53°20' E 007°11'0 0.0
2017-Dec-11 19:57N 53°20' E 007°11'0 0.0
2017-Dec-11 19:27N 53°20' E 007°11'0 0.0
2017-Dec-11 18:57N 53°20' E 007°11'0 0.0
2017-Dec-11 18:30N 53°20' E 007°11'0 0.0
2017-Dec-11 17:57N 53°20' E 007°11'0 0.0
2017-Dec-11 17:27N 53°20' E 007°11'0 0.0
2017-Dec-11 17:00N 53°20' E 007°11'0 0.0
2017-Dec-11 16:30N 53°20' E 007°11'0 0.0
2017-Dec-11 16:00N 53°20' E 007°11'0 0.0
2017-Dec-11 15:30N 53°20' E 007°11'0 0.0
2017-Dec-11 15:00N 53°20' E 007°11'0 0.0
2017-Dec-11 14:30N 53°20' E 007°11'0 0.0
2017-Dec-11 14:00N 53°20' E 007°11'0 0.0
2017-Dec-11 13:30N 53°20' E 007°11'0 0.0
2017-Dec-11 13:00N 53°20' E 007°11'0 0.0
2017-Dec-11 12:30N 53°20' E 007°11'0 0.0
2017-Dec-11 12:00N 53°20' E 007°11'0 0.0
2017-Dec-11 11:30N 53°20' E 007°11'0 0.0
2017-Dec-11 11:00N 53°20' E 007°11'0 0.0
2017-Dec-11 10:30N 53°20' E 007°11'0 0.0
2017-Dec-11 10:00N 53°20' E 007°11'0 0.0
2017-Dec-11 09:30N 53°20' E 007°11'0 0.0
2017-Dec-11 09:00N 53°20' E 007°11'0 0.0
2017-Dec-11 08:30N 53°20' E 007°11'0 0.0
2017-Dec-11 07:57N 53°20' E 007°11'0 0.0
2017-Dec-11 07:30N 53°20' E 007°11'0 0.0
2017-Dec-11 07:00N 53°20' E 007°11'0 0.0
2017-Dec-11 06:30N 53°20' E 007°11'0 0.0
2017-Dec-11 06:00N 53°20' E 007°11'0 0.0
2017-Dec-11 05:30N 53°20' E 007°11'0 0.0
2017-Dec-11 04:57N 53°20' E 007°11'0 0.0
2017-Dec-11 04:30N 53°20' E 007°11'0 0.0
2017-Dec-11 04:00N 53°20' E 007°11'0 0.0
2017-Dec-11 03:27N 53°20' E 007°11'0 0.0
2017-Dec-11 03:00N 53°20' E 007°11'0 0.0
2017-Dec-11 02:27N 53°20' E 007°11'0 0.0
2017-Dec-11 02:00N 53°20' E 007°11'0 0.0
2017-Dec-11 01:27N 53°20' E 007°11'0 0.0
2017-Dec-11 01:00N 53°20' E 007°11'0 0.0
2017-Dec-11 00:30N 53°20' E 007°11'0 0.0
2017-Dec-10 23:57N 53°20' E 007°11'0 0.0
2017-Dec-10 23:30N 53°20' E 007°11'0 0.0
2017-Dec-10 23:00N 53°20' E 007°11'0 0.0
2017-Dec-10 22:27N 53°20' E 007°11'0 0.0
2017-Dec-10 21:57N 53°20' E 007°11'0 0.0
2017-Dec-10 21:21N 53°20' E 007°11'0 0.0
2017-Dec-10 21:00N 53°20' E 007°11'0 0.0
2017-Dec-10 20:30N 53°20' E 007°11'0 0.0
2017-Dec-10 19:54N 53°20' E 007°11'0 0.0
2017-Dec-10 19:30N 53°20' E 007°11'0 0.0
2017-Dec-10 19:00N 53°20' E 007°11'0 0.0
2017-Dec-10 18:30N 53°20' E 007°11'0 0.0
2017-Dec-10 17:54N 53°20' E 007°11'0 0.0
2017-Dec-10 17:30N 53°20' E 007°11'0 0.0
2017-Dec-10 17:00N 53°20' E 007°11'0 0.0
2017-Dec-10 16:30N 53°20' E 007°11'0 0.0
2017-Dec-10 16:00N 53°20' E 007°11'0 0.0
2017-Dec-10 15:30N 53°20' E 007°11'0 0.2
2017-Dec-10 15:01N 53°20' E 007°11'2 3.5
2017-Dec-10 14:30N 53°20' E 007°08'510.2
2017-Dec-10 14:01N 53°21' E 006°59'816.2
2017-Dec-10 13:31N 53°27' E 006°52'44 9.6
2017-Dec-10 08:57N 53°36' E 005°40'4 8.7
2017-Dec-10 08:30N 53°35' E 005°34'4 8.6
2017-Dec-10 08:00N 53°33' E 005°27'5 9.2
2017-Dec-10 07:30N 53°32' E 005°19'5 9.8
2017-Dec-10 07:00N 53°30' E 005°12'611.8
2017-Dec-10 06:30N 53°28' E 005°03'611.7
2017-Dec-10 06:00N 53°26' E 004°53'611.8
2017-Dec-10 05:30N 53°24' E 004°44'612.2
2017-Dec-10 05:00N 53°19' E 004°39'612.5
2017-Dec-10 04:30N 53°13' E 004°35'611.7
2017-Dec-10 04:00N 53°08' E 004°30'612.3
2017-Dec-10 03:30N 53°03' E 004°24'612.3
2017-Dec-10 03:00N 52°57' E 004°19'612.5
2017-Dec-10 02:30N 52°51' E 004°16'612.3
2017-Dec-10 02:00N 52°47' E 004°10'612.1
2017-Dec-10 01:30N 52°42' E 004°04'612.3
2017-Dec-10 01:00N 52°38' E 003°56'612.3
2017-Dec-10 00:30N 52°33' E 003°49'612.5
2017-Dec-10 00:00N 52°29' E 003°42'712.7
2017-Dec-09 23:29N 52°24' E 003°34'612.8
2017-Dec-09 23:00N 52°19' E 003°30'713.3
2017-Dec-09 22:30N 52°12' E 003°27'713.8
2017-Dec-09 22:00N 52°05' E 003°25'2114.1
2017-Dec-09 20:33N 51°45' E 003°17'113.8
2017-Dec-09 20:30N 51°45' E 003°16'510.3
2017-Dec-09 19:59N 51°40' E 003°20'612.1
2017-Dec-09 19:31N 51°35' E 003°24'612.5
2017-Dec-09 19:01N 51°29' E 003°29'510.8
2017-Dec-09 18:31N 51°26' E 003°36'3 6.6
2017-Dec-09 18:00N 51°26' E 003°41'612.7
2017-Dec-09 17:30N 51°21' E 003°47'611.1
2017-Dec-09 17:00N 51°23' E 003°56'5 9.2
2017-Dec-09 16:31N 51°26' E 004°02'510.4
2017-Dec-09 16:00N 51°22' E 004°08'4 7.6
2017-Dec-09 15:30N 51°21' E 004°14'4 7.8
2017-Dec-09 15:00N 51°18' E 004°16'1 2.4
2017-Dec-09 14:30N 51°17' E 004°15'0 0.0
2017-Dec-09 14:00N 51°17' E 004°15'1 1.3
2017-Dec-09 13:30N 51°16' E 004°15'0 0.4
2017-Dec-09 12:58N 51°16' E 004°14'0 0.0
2017-Dec-09 12:28N 51°16' E 004°14'0 0.0
2017-Dec-09 11:58N 51°16' E 004°14'0 0.0
2017-Dec-09 11:28N 51°16' E 004°14'0 0.0
2017-Dec-09 10:58N 51°16' E 004°14'0 0.0
2017-Dec-09 10:28N 51°16' E 004°14'0 0.0
2017-Dec-09 09:58N 51°16' E 004°14'0 0.0
2017-Dec-09 09:25N 51°16' E 004°14'0 0.0
2017-Dec-09 08:58N 51°16' E 004°14'0 0.0
2017-Dec-09 08:28N 51°16' E 004°14'0 0.0
2017-Dec-09 07:58N 51°16' E 004°14'0 0.0
2017-Dec-09 07:28N 51°16' E 004°14'0 0.0
2017-Dec-09 06:55N 51°16' E 004°14'0 0.0
2017-Dec-09 06:28N 51°16' E 004°14'0 0.0
2017-Dec-09 05:58N 51°16' E 004°14'0 0.0
2017-Dec-09 05:28N 51°16' E 004°14'0 0.0
2017-Dec-09 04:58N 51°16' E 004°14'0 0.0
2017-Dec-09 04:28N 51°16' E 004°14'0 0.0
2017-Dec-09 03:58N 51°16' E 004°14'0 0.0
2017-Dec-09 03:28N 51°16' E 004°14'0 0.0
2017-Dec-09 02:58N 51°16' E 004°14'0 0.0
2017-Dec-09 02:28N 51°16' E 004°14'0 0.0
2017-Dec-09 01:58N 51°16' E 004°14'0 0.0
2017-Dec-09 01:28N 51°16' E 004°14'0 0.0
2017-Dec-09 00:58N 51°16' E 004°14'0 0.0
2017-Dec-09 00:28N 51°16' E 004°14'0 0.0
2017-Dec-08 23:58N 51°16' E 004°14'0 0.0
2017-Dec-08 23:28N 51°16' E 004°14'0 0.0
2017-Dec-08 22:58N 51°16' E 004°14'0 0.0
2017-Dec-08 22:28N 51°16' E 004°14'0 0.0
2017-Dec-08 21:58N 51°16' E 004°14'0 0.0
2017-Dec-08 21:28N 51°16' E 004°14'0 0.0
2017-Dec-08 20:58N 51°16' E 004°14'0 0.0
2017-Dec-08 20:28N 51°16' E 004°14'0 0.0
2017-Dec-08 19:58N 51°16' E 004°14'0 0.0
2017-Dec-08 19:28N 51°16' E 004°14'0 0.0
2017-Dec-08 18:58N 51°16' E 004°14'0 0.0
2017-Dec-08 18:28N 51°16' E 004°14'0 0.0
2017-Dec-08 17:58N 51°16' E 004°14'0 0.0
2017-Dec-08 17:28N 51°16' E 004°14'0 0.0
2017-Dec-08 16:58N 51°16' E 004°14'0 0.0
2017-Dec-08 16:28N 51°16' E 004°14'0 0.0
2017-Dec-08 15:58N 51°16' E 004°14'0 0.0
2017-Dec-08 15:28N 51°16' E 004°14'0 0.0
2017-Dec-08 14:58N 51°16' E 004°14'0 0.0
2017-Dec-08 14:28N 51°16' E 004°14'0 0.0
2017-Dec-08 13:58N 51°16' E 004°14'0 0.0
2017-Dec-08 13:28N 51°16' E 004°14'0 0.0
2017-Dec-08 12:58N 51°16' E 004°14'0 0.0
2017-Dec-08 12:28N 51°16' E 004°14'0 0.0
2017-Dec-08 11:58N 51°16' E 004°14'0 0.0
2017-Dec-08 11:28N 51°16' E 004°14'0 0.0
2017-Dec-08 10:55N 51°16' E 004°14'0 0.0
2017-Dec-08 10:28N 51°16' E 004°14'0 0.0
2017-Dec-08 09:52N 51°16' E 004°14'0 0.0
2017-Dec-08 09:28N 51°16' E 004°14'0 0.0
2017-Dec-08 08:58N 51°16' E 004°14'0 0.0
2017-Dec-08 08:25N 51°16' E 004°14'0 0.0
2017-Dec-08 07:58N 51°16' E 004°14'0 0.0
2017-Dec-08 07:28N 51°16' E 004°14'0 0.0
2017-Dec-08 06:58N 51°16' E 004°14'1 1.7
2017-Dec-08 06:30N 51°17' E 004°15'0 0.0
2017-Dec-08 06:00N 51°17' E 004°15'0 0.2
2017-Dec-08 05:30N 51°17' E 004°15'2 3.8
2017-Dec-08 05:01N 51°18' E 004°16'5 9.0
2017-Dec-08 04:30N 51°22' E 004°13'5 9.9
2017-Dec-08 04:00N 51°22' E 004°05'510.6
2017-Dec-08 03:30N 51°25' E 003°58'713.5
2017-Dec-08 03:00N 51°21' E 003°50'612.5
2017-Dec-08 02:30N 51°25' E 003°42'5 9.4
2017-Dec-08 02:01N 51°25' E 003°35'713.3
2017-Dec-08 01:30N 51°25' E 003°25'815.7
2017-Dec-08 01:00N 51°24' E 003°12'714.3
2017-Dec-08 00:31N 51°25' E 003°01'714.0
2017-Dec-08 00:00N 51°25' E 002°49'510.1
2017-Dec-07 23:30N 51°21' E 002°44'6 8.0
2017-Dec-07 22:46N 51°22' E 002°35'310.6
2017-Dec-07 22:26N 51°22' E 002°29'614.6
2017-Dec-07 22:00N 51°19' E 002°20'815.7
2017-Dec-07 21:30N 51°14' E 002°10'815.8
2017-Dec-07 21:00N 51°11' E 001°58'815.8
2017-Dec-07 20:30N 51°07' E 001°47'815.6
2017-Dec-07 20:00N 51°02' E 001°38'816.1
2017-Dec-07 19:30N 50°56' E 001°29'816.6
2017-Dec-07 19:00N 50°48' E 001°24'1116.4
2017-Dec-07 18:19N 50°38' E 001°15'616.8
2017-Dec-07 17:56N 50°34' E 001°08'916.5
2017-Dec-07 17:25N 50°29' E 000°56'717.0
2017-Dec-07 17:00N 50°27' E 000°45'917.0
2017-Dec-07 16:27N 50°25' E 000°32'816.9
2017-Dec-07 16:00N 50°23' E 000°20'816.8
2017-Dec-07 15:30N 50°20' E 000°08'917.0
2017-Dec-07 15:00N 50°19' W 000°06'917.1
2017-Dec-07 14:29N 50°19' W 000°20'3618.3
2017-Dec-07 12:31N 50°19' W 001°16'319.8
2017-Dec-07 12:23N 50°20' W 001°20'1420.0
2017-Dec-07 11:40N 50°22' W 001°42'320.5
2017-Dec-07 11:30N 50°23' W 001°47'1120.8
2017-Dec-07 11:00N 50°23' W 002°04'1020.9
2017-Dec-07 10:31N 50°23' W 002°20'1020.4
2017-Dec-07 10:01N 50°24' W 002°36'1019.6
2017-Dec-07 09:30N 50°24' W 002°51'1019.0
2017-Dec-07 09:00N 50°25' W 003°06'816.8
2017-Dec-07 08:30N 50°25' W 003°19'4 8.8
2017-Dec-07 08:00N 50°24' W 003°26'611.8
2017-Dec-07 07:30N 50°19' W 003°25'816.3
2017-Dec-07 07:00N 50°11' W 003°28'917.8
2017-Dec-07 06:30N 50°04' W 003°38'918.7
2017-Dec-07 06:00N 50°01' W 003°51'918.4
2017-Dec-07 05:30N 49°57' W 004°04'918.4
2017-Dec-07 05:00N 49°53' W 004°17'1018.5
2017-Dec-07 04:29N 49°48' W 004°30'1018.4
2017-Dec-07 03:57N 49°44' W 004°44'  
Track history (hours):
 
Tides and Currents Weather Stations Pressure Air Temp Water Temp Dewpoint Dewpoint Depression Visibility Wind Speed Wind Dir Waves Ship Positions

Euphony Ace

Last reported at 2017-Dec-15 07:59 UTC. Time now 2017-Dec-15 08:19 UTC.
Position N 53°35' E 008°33'.

Length 200 m; beam 32.2 m.

Type: Cargo ship. MMSI: 371618000.

Date/timePositionNaut miles runAvg speedWind from/ knotsBaromVisibWave heightAir tempDewpointWater temp
2017-Dec-15 07:59N 53°35' E 008°33'0 0.0
2017-Dec-15 07:29N 53°35' E 008°33'0 0.0
2017-Dec-15 06:59N 53°35' E 008°33'0 0.0
2017-Dec-15 06:29N 53°35' E 008°33'0 0.0
2017-Dec-15 05:59N 53°35' E 008°33'0 0.0
2017-Dec-15 05:29N 53°35' E 008°33'0 0.0
2017-Dec-15 04:59N 53°35' E 008°33'0 0.0
2017-Dec-15 04:29N 53°35' E 008°33'0 0.0
2017-Dec-15 03:59N 53°35' E 008°33'0 0.0
2017-Dec-15 02:29N 53°35' E 008°33'0 0.0
2017-Dec-15 00:59N 53°35' E 008°33'0 0.0
2017-Dec-15 00:29N 53°35' E 008°33'0 0.0
2017-Dec-14 18:29N 53°35' E 008°33'0 0.0
2017-Dec-14 17:59N 53°35' E 008°33'0 0.0
2017-Dec-14 17:29N 53°35' E 008°33'0 0.0
2017-Dec-14 16:59N 53°35' E 008°33'0 0.0
2017-Dec-14 16:30N 53°35' E 008°33'0 0.0
2017-Dec-14 15:59N 53°35' E 008°33'0 0.0
2017-Dec-14 14:59N 53°35' E 008°33'0 0.0
2017-Dec-14 14:29N 53°35' E 008°33'0 0.0
2017-Dec-14 13:59N 53°35' E 008°33'0 0.0
2017-Dec-14 13:29N 53°35' E 008°33'0 0.0
2017-Dec-14 12:59N 53°35' E 008°33'0 0.0
2017-Dec-14 12:29N 53°35' E 008°33'0 0.0
2017-Dec-14 11:59N 53°35' E 008°33'0 0.0
2017-Dec-14 11:29N 53°35' E 008°33'0 0.0
2017-Dec-14 10:59N 53°35' E 008°33'0 0.0
2017-Dec-14 10:29N 53°35' E 008°33'0 0.0
2017-Dec-14 09:59N 53°35' E 008°33'0 0.0
2017-Dec-14 09:29N 53°35' E 008°33'0 0.0
2017-Dec-14 08:59N 53°35' E 008°33'0 0.0
2017-Dec-14 08:29N 53°35' E 008°33'0 0.0
2017-Dec-14 07:59N 53°35' E 008°33'0 0.0
2017-Dec-14 07:29N 53°35' E 008°33'0 0.0
2017-Dec-14 06:59N 53°35' E 008°33'0 0.0
2017-Dec-14 06:29N 53°35' E 008°33'0 0.0
2017-Dec-14 05:59N 53°35' E 008°33'0 0.0
2017-Dec-14 05:29N 53°35' E 008°33'0 0.0
2017-Dec-14 04:59N 53°35' E 008°33'0 0.7
2017-Dec-14 04:30N 53°34' E 008°33'0 0.2
2017-Dec-14 04:00N 53°34' E 008°33'1 1.9
2017-Dec-14 03:30N 53°35' E 008°32'4 8.7
2017-Dec-14 03:00N 53°38' E 008°27'815.5
2017-Dec-14 02:30N 53°43' E 008°17'817.0
2017-Dec-14 02:00N 53°49' E 008°07'816.1
2017-Dec-14 01:30N 53°52' E 007°54'611.3
2017-Dec-14 01:00N 53°53' E 007°44'3 6.3
2017-Dec-14 00:30N 53°52' E 007°39'3 5.5
2017-Dec-14 00:00N 53°54' E 007°36'4613.5
2017-Dec-13 20:36N 53°38' E 006°22'211.3
2017-Dec-13 20:25N 53°37' E 006°25'615.9
2017-Dec-13 20:00N 53°36' E 006°36'917.4
2017-Dec-13 19:30N 53°30' E 006°48'815.7
2017-Dec-13 19:01N 53°25' E 006°57'611.3
2017-Dec-13 18:30N 53°20' E 007°01'4 9.0
2017-Dec-13 18:00N 53°20' E 007°08'2 3.2
2017-Dec-13 17:30N 53°20' E 007°11'0 0.1
2017-Dec-13 17:01N 53°20' E 007°11'0 0.0
2017-Dec-13 16:30N 53°20' E 007°11'0 0.0
2017-Dec-13 15:57N 53°20' E 007°11'0 0.0
2017-Dec-13 15:30N 53°20' E 007°11'0 0.0
2017-Dec-13 15:00N 53°20' E 007°11'0 0.0
2017-Dec-13 14:30N 53°20' E 007°11'0 0.0
2017-Dec-13 14:00N 53°20' E 007°11'0 0.0
2017-Dec-13 13:27N 53°20' E 007°11'0 0.0
2017-Dec-13 12:57N 53°20' E 007°11'0 0.0
2017-Dec-13 12:30N 53°20' E 007°11'0 0.0
2017-Dec-13 12:00N 53°20' E 007°11'0 0.0
2017-Dec-13 11:30N 53°20' E 007°11'0 0.0
2017-Dec-13 11:00N 53°20' E 007°11'0 0.0
2017-Dec-13 10:30N 53°20' E 007°11'0 0.0
2017-Dec-13 10:00N 53°20' E 007°11'0 0.0
2017-Dec-13 09:27N 53°20' E 007°11'0 0.0
2017-Dec-13 09:00N 53°20' E 007°11'0 0.0
2017-Dec-13 08:30N 53°20' E 007°11'0 0.0
2017-Dec-13 07:57N 53°20' E 007°11'0 0.0
2017-Dec-13 07:24N 53°20' E 007°11'0 0.0
2017-Dec-13 07:00N 53°20' E 007°11'0 0.0
2017-Dec-13 06:30N 53°20' E 007°11'0 0.0
2017-Dec-13 06:00N 53°20' E 007°11'0 0.0
2017-Dec-13 05:30N 53°20' E 007°11'0 0.0
2017-Dec-13 05:00N 53°20' E 007°11'0 0.0
2017-Dec-13 04:30N 53°20' E 007°11'0 0.0
2017-Dec-13 04:00N 53°20' E 007°11'0 0.0
2017-Dec-13 03:30N 53°20' E 007°11'0 0.0
2017-Dec-13 02:57N 53°20' E 007°11'0 0.0
2017-Dec-13 02:30N 53°20' E 007°11'0 0.0
2017-Dec-13 01:57N 53°20' E 007°11'0 0.0
2017-Dec-13 01:30N 53°20' E 007°11'0 0.0
2017-Dec-13 01:00N 53°20' E 007°11'0 0.0
2017-Dec-13 00:30N 53°20' E 007°11'0 0.0
2017-Dec-13 00:00N 53°20' E 007°11'0 0.0
2017-Dec-12 23:30N 53°20' E 007°11'0 0.0
2017-Dec-12 23:00N 53°20' E 007°11'0 0.0
2017-Dec-12 22:30N 53°20' E 007°11'0 0.0
2017-Dec-12 21:54N 53°20' E 007°11'0 0.0
2017-Dec-12 21:30N 53°20' E 007°11'0 0.0
2017-Dec-12 20:57N 53°20' E 007°11'0 0.0
2017-Dec-12 20:30N 53°20' E 007°11'0 0.0
2017-Dec-12 20:00N 53°20' E 007°11'0 0.0
2017-Dec-12 19:30N 53°20' E 007°11'0 0.0
2017-Dec-12 19:00N 53°20' E 007°11'0 0.0
2017-Dec-12 18:30N 53°20' E 007°11'0 0.0
2017-Dec-12 18:00N 53°20' E 007°11'0 0.0
2017-Dec-12 17:30N 53°20' E 007°11'0 0.0
2017-Dec-12 16:57N 53°20' E 007°11'0 0.0
2017-Dec-12 16:27N 53°20' E 007°11'0 0.0
2017-Dec-12 16:00N 53°20' E 007°11'0 0.0
2017-Dec-12 15:30N 53°20' E 007°11'0 0.0
2017-Dec-12 15:00N 53°20' E 007°11'0 0.0
2017-Dec-12 14:30N 53°20' E 007°11'0 0.0
2017-Dec-12 14:00N 53°20' E 007°11'0 0.0
2017-Dec-12 13:30N 53°20' E 007°11'0 0.0
2017-Dec-12 12:18N 53°20' E 007°11'0 0.0
2017-Dec-12 12:00N 53°20' E 007°11'0 0.0
2017-Dec-12 11:30N 53°20' E 007°11'0 0.0
2017-Dec-12 11:00N 53°20' E 007°11'0 0.0
2017-Dec-12 10:30N 53°20' E 007°11'0 0.0
2017-Dec-12 10:00N 53°20' E 007°11'0 0.0
2017-Dec-12 09:24N 53°20' E 007°11'0 0.0
2017-Dec-12 08:54N 53°20' E 007°11'0 0.0
2017-Dec-12 08:30N 53°20' E 007°11'0 0.0
2017-Dec-12 08:00N 53°20' E 007°11'0 0.0
2017-Dec-12 07:30N 53°20' E 007°11'0 0.0
2017-Dec-12 06:45N 53°20' E 007°11'0 0.0
2017-Dec-12 06:24N 53°20' E 007°11'0 0.0
2017-Dec-12 05:57N 53°20' E 007°11'0 0.0
2017-Dec-12 05:30N 53°20' E 007°11'0 0.0
2017-Dec-12 04:57N 53°20' E 007°11'0 0.0
2017-Dec-12 04:30N 53°20' E 007°11'0 0.0
2017-Dec-12 03:57N 53°20' E 007°11'0 0.0
2017-Dec-12 03:27N 53°20' E 007°11'0 0.0
2017-Dec-12 02:57N 53°20' E 007°11'0 0.0
2017-Dec-12 02:21N 53°20' E 007°11'0 0.0
2017-Dec-12 01:57N 53°20' E 007°11'0 0.0
2017-Dec-12 01:27N 53°20' E 007°11'0 0.0
2017-Dec-12 00:54N 53°20' E 007°11'0 0.0
2017-Dec-12 00:30N 53°20' E 007°11'0 0.0
2017-Dec-12 00:00N 53°20' E 007°11'0 0.0
2017-Dec-11 23:24N 53°20' E 007°11'0 0.0
2017-Dec-11 23:00N 53°20' E 007°11'0 0.0
2017-Dec-11 22:21N 53°20' E 007°11'0 0.0
2017-Dec-11 21:57N 53°20' E 007°11'0 0.0
2017-Dec-11 21:30N 53°20' E 007°11'0 0.0
2017-Dec-11 21:00N 53°20' E 007°11'0 0.0
2017-Dec-11 20:27N 53°20' E 007°11'0 0.0
2017-Dec-11 19:57N 53°20' E 007°11'0 0.0
2017-Dec-11 19:27N 53°20' E 007°11'0 0.0
2017-Dec-11 18:57N 53°20' E 007°11'0 0.0
2017-Dec-11 18:30N 53°20' E 007°11'0 0.0
2017-Dec-11 17:57N 53°20' E 007°11'0 0.0
2017-Dec-11 17:27N 53°20' E 007°11'0 0.0
2017-Dec-11 17:00N 53°20' E 007°11'0 0.0
2017-Dec-11 16:30N 53°20' E 007°11'0 0.0
2017-Dec-11 16:00N 53°20' E 007°11'0 0.0
2017-Dec-11 15:30N 53°20' E 007°11'0 0.0
2017-Dec-11 15:00N 53°20' E 007°11'0 0.0
2017-Dec-11 14:30N 53°20' E 007°11'0 0.0
2017-Dec-11 14:00N 53°20' E 007°11'0 0.0
2017-Dec-11 13:30N 53°20' E 007°11'0 0.0
2017-Dec-11 13:00N 53°20' E 007°11'0 0.0
2017-Dec-11 12:30N 53°20' E 007°11'0 0.0
2017-Dec-11 12:00N 53°20' E 007°11'0 0.0
2017-Dec-11 11:30N 53°20' E 007°11'0 0.0
2017-Dec-11 11:00N 53°20' E 007°11'0 0.0
2017-Dec-11 10:30N 53°20' E 007°11'0 0.0
2017-Dec-11 10:00N 53°20' E 007°11'0 0.0
2017-Dec-11 09:30N 53°20' E 007°11'0 0.0
2017-Dec-11 09:00N 53°20' E 007°11'0 0.0
2017-Dec-11 08:30N 53°20' E 007°11'0 0.0
2017-Dec-11 07:57N 53°20' E 007°11'0 0.0
2017-Dec-11 07:30N 53°20' E 007°11'0 0.0
2017-Dec-11 07:00N 53°20' E 007°11'0 0.0
2017-Dec-11 06:30N 53°20' E 007°11'0 0.0
2017-Dec-11 06:00N 53°20' E 007°11'0 0.0
2017-Dec-11 05:30N 53°20' E 007°11'0 0.0
2017-Dec-11 04:57N 53°20' E 007°11'0 0.0
2017-Dec-11 04:30N 53°20' E 007°11'0 0.0
2017-Dec-11 04:00N 53°20' E 007°11'0 0.0
2017-Dec-11 03:27N 53°20' E 007°11'0 0.0
2017-Dec-11 03:00N 53°20' E 007°11'0 0.0
2017-Dec-11 02:27N 53°20' E 007°11'0 0.0
2017-Dec-11 02:00N 53°20' E 007°11'0 0.0
2017-Dec-11 01:27N 53°20' E 007°11'0 0.0
2017-Dec-11 01:00N 53°20' E 007°11'0 0.0
2017-Dec-11 00:30N 53°20' E 007°11'0 0.0
2017-Dec-10 23:57N 53°20' E 007°11'0 0.0
2017-Dec-10 23:30N 53°20' E 007°11'0 0.0
2017-Dec-10 23:00N 53°20' E 007°11'0 0.0
2017-Dec-10 22:27N 53°20' E 007°11'0 0.0
2017-Dec-10 21:57N 53°20' E 007°11'0 0.0
2017-Dec-10 21:21N 53°20' E 007°11'0 0.0
2017-Dec-10 21:00N 53°20' E 007°11'0 0.0
2017-Dec-10 20:30N 53°20' E 007°11'0 0.0
2017-Dec-10 19:54N 53°20' E 007°11'0 0.0
2017-Dec-10 19:30N 53°20' E 007°11'0 0.0
2017-Dec-10 19:00N 53°20' E 007°11'0 0.0
2017-Dec-10 18:30N 53°20' E 007°11'0 0.0
2017-Dec-10 17:54N 53°20' E 007°11'0 0.0
2017-Dec-10 17:30N 53°20' E 007°11'0 0.0
2017-Dec-10 17:00N 53°20' E 007°11'0 0.0
2017-Dec-10 16:30N 53°20' E 007°11'0 0.0
2017-Dec-10 16:00N 53°20' E 007°11'0 0.0
2017-Dec-10 15:30N 53°20' E 007°11'0 0.2
2017-Dec-10 15:01N 53°20' E 007°11'2 3.5
2017-Dec-10 14:30N 53°20' E 007°08'510.2
2017-Dec-10 14:01N 53°21' E 006°59'816.2
2017-Dec-10 13:31N 53°27' E 006°52'44 9.6
2017-Dec-10 08:57N 53°36' E 005°40'4 8.7
2017-Dec-10 08:30N 53°35' E 005°34'4 8.6
2017-Dec-10 08:00N 53°33' E 005°27'5 9.2
2017-Dec-10 07:30N 53°32' E 005°19'5 9.8
2017-Dec-10 07:00N 53°30' E 005°12'611.8
2017-Dec-10 06:30N 53°28' E 005°03'611.7
2017-Dec-10 06:00N 53°26' E 004°53'611.8
2017-Dec-10 05:30N 53°24' E 004°44'612.2
2017-Dec-10 05:00N 53°19' E 004°39'612.5
2017-Dec-10 04:30N 53°13' E 004°35'611.7
2017-Dec-10 04:00N 53°08' E 004°30'612.3
2017-Dec-10 03:30N 53°03' E 004°24'612.3
2017-Dec-10 03:00N 52°57' E 004°19'612.5
2017-Dec-10 02:30N 52°51' E 004°16'612.3
2017-Dec-10 02:00N 52°47' E 004°10'612.1
2017-Dec-10 01:30N 52°42' E 004°04'612.3
2017-Dec-10 01:00N 52°38' E 003°56'612.3
2017-Dec-10 00:30N 52°33' E 003°49'612.5
2017-Dec-10 00:00N 52°29' E 003°42'712.7
2017-Dec-09 23:29N 52°24' E 003°34'612.8
2017-Dec-09 23:00N 52°19' E 003°30'713.3
2017-Dec-09 22:30N 52°12' E 003°27'713.8
2017-Dec-09 22:00N 52°05' E 003°25'2114.1
2017-Dec-09 20:33N 51°45' E 003°17'113.8
2017-Dec-09 20:30N 51°45' E 003°16'510.3
2017-Dec-09 19:59N 51°40' E 003°20'612.1
2017-Dec-09 19:31N 51°35' E 003°24'612.5
2017-Dec-09 19:01N 51°29' E 003°29'510.8
2017-Dec-09 18:31N 51°26' E 003°36'3 6.6
2017-Dec-09 18:00N 51°26' E 003°41'612.7
2017-Dec-09 17:30N 51°21' E 003°47'611.1
2017-Dec-09 17:00N 51°23' E 003°56'5 9.2
2017-Dec-09 16:31N 51°26' E 004°02'510.4
2017-Dec-09 16:00N 51°22' E 004°08'4 7.6
2017-Dec-09 15:30N 51°21' E 004°14'4 7.8
2017-Dec-09 15:00N 51°18' E 004°16'1 2.4
2017-Dec-09 14:30N 51°17' E 004°15'0 0.0
2017-Dec-09 14:00N 51°17' E 004°15'1 1.3
2017-Dec-09 13:30N 51°16' E 004°15'0 0.4
2017-Dec-09 12:58N 51°16' E 004°14'0 0.0
2017-Dec-09 12:28N 51°16' E 004°14'0 0.0
2017-Dec-09 11:58N 51°16' E 004°14'0 0.0
2017-Dec-09 11:28N 51°16' E 004°14'0 0.0
2017-Dec-09 10:58N 51°16' E 004°14'0 0.0
2017-Dec-09 10:28N 51°16' E 004°14'0 0.0
2017-Dec-09 09:58N 51°16' E 004°14'0 0.0
2017-Dec-09 09:25N 51°16' E 004°14'0 0.0
2017-Dec-09 08:58N 51°16' E 004°14'0 0.0
2017-Dec-09 08:28N 51°16' E 004°14'0 0.0
2017-Dec-09 07:58N 51°16' E 004°14'0 0.0
2017-Dec-09 07:28N 51°16' E 004°14'0 0.0
2017-Dec-09 06:55N 51°16' E 004°14'0 0.0
2017-Dec-09 06:28N 51°16' E 004°14'0 0.0
2017-Dec-09 05:58N 51°16' E 004°14'0 0.0
2017-Dec-09 05:28N 51°16' E 004°14'0 0.0
2017-Dec-09 04:58N 51°16' E 004°14'0 0.0
2017-Dec-09 04:28N 51°16' E 004°14'0 0.0
2017-Dec-09 03:58N 51°16' E 004°14'0 0.0
2017-Dec-09 03:28N 51°16' E 004°14'0 0.0
2017-Dec-09 02:58N 51°16' E 004°14'0 0.0
2017-Dec-09 02:28N 51°16' E 004°14'0 0.0
2017-Dec-09 01:58N 51°16' E 004°14'0 0.0
2017-Dec-09 01:28N 51°16' E 004°14'0 0.0
2017-Dec-09 00:58N 51°16' E 004°14'0 0.0
2017-Dec-09 00:28N 51°16' E 004°14'0 0.0
2017-Dec-08 23:58N 51°16' E 004°14'0 0.0
2017-Dec-08 23:28N 51°16' E 004°14'0 0.0
2017-Dec-08 22:58N 51°16' E 004°14'0 0.0
2017-Dec-08 22:28N 51°16' E 004°14'0 0.0
2017-Dec-08 21:58N 51°16' E 004°14'0 0.0
2017-Dec-08 21:28N 51°16' E 004°14'0 0.0
2017-Dec-08 20:58N 51°16' E 004°14'0 0.0
2017-Dec-08 20:28N 51°16' E 004°14'0 0.0
2017-Dec-08 19:58N 51°16' E 004°14'0 0.0
2017-Dec-08 19:28N 51°16' E 004°14'0 0.0
2017-Dec-08 18:58N 51°16' E 004°14'0 0.0
2017-Dec-08 18:28N 51°16' E 004°14'0 0.0
2017-Dec-08 17:58N 51°16' E 004°14'0 0.0
2017-Dec-08 17:28N 51°16' E 004°14'0 0.0
2017-Dec-08 16:58N 51°16' E 004°14'0 0.0
2017-Dec-08 16:28N 51°16' E 004°14'0 0.0
2017-Dec-08 15:58N 51°16' E 004°14'0 0.0
2017-Dec-08 15:28N 51°16' E 004°14'0 0.0
2017-Dec-08 14:58N 51°16' E 004°14'0 0.0
2017-Dec-08 14:28N 51°16' E 004°14'0 0.0
2017-Dec-08 13:58N 51°16' E 004°14'0 0.0
2017-Dec-08 13:28N 51°16' E 004°14'0 0.0
2017-Dec-08 12:58N 51°16' E 004°14'0 0.0
2017-Dec-08 12:28N 51°16' E 004°14'0 0.0
2017-Dec-08 11:58N 51°16' E 004°14'0 0.0
2017-Dec-08 11:28N 51°16' E 004°14'0 0.0
2017-Dec-08 10:55N 51°16' E 004°14'0 0.0
2017-Dec-08 10:28N 51°16' E 004°14'0 0.0
2017-Dec-08 09:52N 51°16' E 004°14'0 0.0
2017-Dec-08 09:28N 51°16' E 004°14'0 0.0
2017-Dec-08 08:58N 51°16' E 004°14'0 0.0
2017-Dec-08 08:25N 51°16' E 004°14'0 0.0
2017-Dec-08 07:58N 51°16' E 004°14'0 0.0
2017-Dec-08 07:28N 51°16' E 004°14'0 0.0
2017-Dec-08 06:58N 51°16' E 004°14'1 1.7
2017-Dec-08 06:30N 51°17' E 004°15'0 0.0
2017-Dec-08 06:00N 51°17' E 004°15'0 0.2
2017-Dec-08 05:30N 51°17' E 004°15'2 3.8
2017-Dec-08 05:01N 51°18' E 004°16'5 9.0
2017-Dec-08 04:30N 51°22' E 004°13'5 9.9
2017-Dec-08 04:00N 51°22' E 004°05'510.6
2017-Dec-08 03:30N 51°25' E 003°58'713.5
2017-Dec-08 03:00N 51°21' E 003°50'612.5
2017-Dec-08 02:30N 51°25' E 003°42'5 9.4
2017-Dec-08 02:01N 51°25' E 003°35'713.3
2017-Dec-08 01:30N 51°25' E 003°25'815.7
2017-Dec-08 01:00N 51°24' E 003°12'714.3
2017-Dec-08 00:31N 51°25' E 003°01'714.0
2017-Dec-08 00:00N 51°25' E 002°49'510.1
2017-Dec-07 23:30N 51°21' E 002°44'6 8.0
2017-Dec-07 22:46N 51°22' E 002°35'310.6
2017-Dec-07 22:26N 51°22' E 002°29'614.6
2017-Dec-07 22:00N 51°19' E 002°20'815.7
2017-Dec-07 21:30N 51°14' E 002°10'815.8
2017-Dec-07 21:00N 51°11' E 001°58'815.8
2017-Dec-07 20:30N 51°07' E 001°47'815.6
2017-Dec-07 20:00N 51°02' E 001°38'816.1
2017-Dec-07 19:30N 50°56' E 001°29'816.6
2017-Dec-07 19:00N 50°48' E 001°24'1116.4
2017-Dec-07 18:19N 50°38' E 001°15'616.8
2017-Dec-07 17:56N 50°34' E 001°08'916.5
2017-Dec-07 17:25N 50°29' E 000°56'717.0
2017-Dec-07 17:00N 50°27' E 000°45'917.0
2017-Dec-07 16:27N 50°25' E 000°32'816.9
2017-Dec-07 16:00N 50°23' E 000°20'816.8
2017-Dec-07 15:30N 50°20' E 000°08'917.0
2017-Dec-07 15:00N 50°19' W 000°06'917.1
2017-Dec-07 14:29N 50°19' W 000°20'3618.3
2017-Dec-07 12:31N 50°19' W 001°16'319.8
2017-Dec-07 12:23N 50°20' W 001°20'1420.0
2017-Dec-07 11:40N 50°22' W 001°42'320.5
2017-Dec-07 11:30N 50°23' W 001°47'1120.8
2017-Dec-07 11:00N 50°23' W 002°04'1020.9
2017-Dec-07 10:31N 50°23' W 002°20'1020.4
2017-Dec-07 10:01N 50°24' W 002°36'1019.6
2017-Dec-07 09:30N 50°24' W 002°51'1019.0
2017-Dec-07 09:00N 50°25' W 003°06'816.8
2017-Dec-07 08:30N 50°25' W 003°19'4 8.8
2017-Dec-07 08:00N 50°24' W 003°26'611.8
2017-Dec-07 07:30N 50°19' W 003°25'816.3
2017-Dec-07 07:00N 50°11' W 003°28'917.8
2017-Dec-07 06:30N 50°04' W 003°38'918.7
2017-Dec-07 06:00N 50°01' W 003°51'918.4
2017-Dec-07 05:30N 49°57' W 004°04'918.4
2017-Dec-07 05:00N 49°53' W 004°17'1018.5
2017-Dec-07 04:29N 49°48' W 004°30'1018.4
2017-Dec-07 03:57N 49°44' W 004°44'  

Dump ship's entire track history